Time;durP1;ratioP1;P1;durP2;ratioP2;P2;SDS_P1;SDS_P2;PMS_P1;PMS_P2;Temp;Humidity;BMP_temperature;BMP_pressure;BME280_temperature;BME280_humidity;BME280_pressure;Samples;Min_cycle;Max_cycle;Signal;HPM_P1;HPM_P2
2022/03/19 00:01:25;;;;;;;12.40;4.82;;;;;;;0.75;46.54;101780.41;4936178;29;20078;-63
2022/03/19 00:03:53;;;;;;;10.75;5.22;;;;;;;0.73;46.53;101781.66;4935097;29;20107;-64
2022/03/19 00:06:20;;;;;;;13.88;4.70;;;;;;;0.71;46.76;101779.13;4936425;29;20071;-63
2022/03/19 00:08:48;;;;;;;17.45;5.50;;;;;;;0.64;46.94;101782.94;4935328;29;20544;-64
2022/03/19 00:11:15;;;;;;;12.00;5.28;;;;;;;0.57;46.89;101771.16;4934753;29;20086;-63
2022/03/19 00:13:42;;;;;;;16.90;5.30;;;;;;;0.53;47.13;101772.66;4935602;29;20111;-63
2022/03/19 00:16:09;;;;;;;10.73;5.22;;;;;;;0.50;47.04;101765.69;4936411;29;20074;-62
2022/03/19 00:18:37;;;;;;;14.25;5.60;;;;;;;0.49;47.16;101765.91;4935833;29;20052;-63
2022/03/19 00:21:05;;;;;;;10.50;4.90;;;;;;;0.47;47.14;101781.72;4936638;29;20048;-63
2022/03/19 00:23:32;;;;;;;16.45;5.75;;;;;;;0.50;47.19;101770.34;4936479;29;20055;-64
2022/03/19 00:25:59;;;;;;;13.48;6.90;;;;;;;0.48;47.14;101770.56;4934703;29;20044;-63
2022/03/19 00:28:26;;;;;;;14.98;5.28;;;;;;;0.44;47.12;101771.19;4936118;29;20459;-63
2022/03/19 00:30:56;;;;;;;15.20;5.20;;;;;;;0.40;47.16;101776.25;4933033;29;20066;-63
2022/03/19 00:33:24;;;;;;;15.60;4.82;;;;;;;0.39;47.44;101781.94;4936188;29;20107;-63
2022/03/19 00:35:51;;;;;;;12.73;5.15;;;;;;;0.35;47.46;101780.69;4934181;29;20051;-63
2022/03/19 00:38:18;;;;;;;14.73;5.00;;;;;;;0.25;47.96;101781.09;4935699;29;20143;-64
2022/03/19 00:40:46;;;;;;;11.43;4.57;;;;;;;0.26;47.53;101780.03;4949568;28;20537;-63
2022/03/19 00:43:13;;;;;;;15.77;5.53;;;;;;;0.25;47.49;101783.81;4935811;29;20075;-64
2022/03/19 00:45:40;;;;;;;27.70;6.05;;;;;;;0.21;48.01;101779.84;4934343;29;20525;-63
2022/03/19 00:48:07;;;;;;;14.77;5.25;;;;;;;0.25;47.90;101783.81;4935626;29;20074;-64
2022/03/19 00:50:34;;;;;;;12.55;5.40;;;;;;;0.26;47.97;101784.69;4933730;29;20485;-64
2022/03/19 00:53:01;;;;;;;13.70;5.65;;;;;;;0.26;47.88;101771.00;4935482;29;20060;-64
2022/03/19 00:55:28;;;;;;;23.77;5.88;;;;;;;0.23;48.03;101785.91;4934051;29;20089;-65
2022/03/19 00:57:55;;;;;;;21.75;5.82;;;;;;;0.22;47.79;101776.03;4935169;29;20142;-63
2022/03/19 01:00:25;;;;;;;15.27;5.63;;;;;;;0.23;48.23;101774.16;4934831;29;20392;-64
2022/03/19 01:02:53;;;;;;;18.07;6.20;;;;;;;0.19;48.22;101772.88;4918221;29;20103;-64
2022/03/19 01:05:22;;;;;;;12.38;5.15;;;;;;;0.17;48.40;101775.81;4935047;29;20318;-64
2022/03/19 01:07:50;;;;;;;14.10;5.63;;;;;;;0.14;48.54;101781.72;4935546;29;20142;-64
2022/03/19 01:10:52;;;;;;;14.13;6.40;;;;;;;0.15;48.59;101783.41;4917727;29;20530;-64
2022/03/19 01:13:25;;;;;;;17.52;5.75;;;;;;;0.14;48.34;101783.63;4901921;29;20047;-64
2022/03/19 01:16:05;;;;;;;16.17;5.88;;;;;;;0.17;48.53;101785.94;4916218;29;20074;-64
2022/03/19 01:18:33;;;;;;;15.32;5.68;;;;;;;0.21;48.45;101792.66;4935299;29;20058;-64
2022/03/19 01:20:59;;;;;;;12.27;5.53;;;;;;;0.20;48.51;101797.28;4933559;29;20056;-64
2022/03/19 01:23:26;;;;;;;17.98;4.97;;;;;;;0.16;48.52;101790.56;4935052;29;20059;-63
2022/03/19 01:25:53;;;;;;;20.52;5.50;;;;;;;0.10;48.84;101791.41;4933423;29;20142;-64
2022/03/19 01:28:20;;;;;;;11.48;5.13;;;;;;;0.12;48.47;101794.78;4935745;29;20086;-63
2022/03/19 01:30:47;;;;;;;13.02;5.40;;;;;;;0.15;48.90;101799.84;4933387;29;20040;-63
2022/03/19 01:33:14;;;;;;;15.13;6.00;;;;;;;0.14;49.07;101791.84;4934716;29;20110;-64
2022/03/19 01:35:41;;;;;;;13.25;5.35;;;;;;;0.09;48.77;101797.09;4933061;29;20063;-64
2022/03/19 01:38:08;;;;;;;18.17;5.95;;;;;;;0.07;48.88;101799.19;4934655;29;20151;-64
2022/03/19 01:40:35;;;;;;;14.57;5.80;;;;;;;0.09;48.64;101797.94;4933274;29;20063;-65
2022/03/19 01:43:03;;;;;;;17.48;6.45;;;;;;;0.10;49.20;101796.88;4934611;29;20055;-65
2022/03/19 01:45:30;;;;;;;19.40;6.28;;;;;;;0.04;49.56;101800.44;4916936;29;20078;-65
2022/03/19 01:47:57;;;;;;;14.07;6.43;;;;;;;-0.05;49.22;101810.72;4913731;29;20059;-63
2022/03/19 01:50:26;;;;;;;19.02;5.78;;;;;;;-0.08;49.18;101810.31;4933702;29;20460;-64
2022/03/19 01:52:54;;;;;;;15.18;6.07;;;;;;;-0.13;49.55;101812.84;4898531;29;20127;-64
2022/03/19 01:55:24;;;;;;;17.50;5.93;;;;;;;-0.19;49.57;101802.72;4914282;29;20048;-64
2022/03/19 01:57:51;;;;;;;;;;;;;;;-0.22;49.51;101804.00;4914956;29;20048;-65
2022/03/19 02:00:21;;;;;;;16.42;6.15;;;;;;;-0.17;49.37;101809.66;4914610;29;19931;-64
2022/03/19 02:02:50;;;;;;;14.98;5.80;;;;;;;-0.16;49.30;101802.31;4914371;29;20056;-64
2022/03/19 02:05:19;;;;;;;15.93;5.47;;;;;;;-0.12;49.31;101806.31;4915277;29;20099;-63
2022/03/19 02:07:48;;;;;;;16.55;5.93;;;;;;;-0.09;49.37;101808.63;4913965;29;20052;-64
2022/03/19 02:10:18;;;;;;;15.43;5.65;;;;;;;-0.04;49.46;101811.59;4915387;29;20484;-64
2022/03/19 02:12:45;;;;;;;24.73;5.57;;;;;;;-0.07;49.37;101814.75;4913926;29;20048;-64
2022/03/19 02:15:14;;;;;;;18.52;5.50;;;;;;;-0.11;49.59;101818.94;4914899;29;20048;-64
2022/03/19 02:17:41;;;;;;;17.45;7.68;;;;;;;-0.13;49.62;101823.78;4913652;29;20588;-64
2022/03/19 02:20:09;;;;;;;19.73;6.53;;;;;;;-0.13;49.56;101823.78;4915064;29;20056;-65
2022/03/19 02:22:36;;;;;;;11.80;5.75;;;;;;;-0.15;49.67;101815.78;4913810;29;20571;-64
2022/03/19 02:27:49;;;;;;;13.93;6.15;;;;;;;-0.19;49.54;101814.53;4913685;29;20083;-64
2022/03/19 02:30:17;;;;;;;12.27;5.32;;;;;;;-0.16;49.50;101818.72;4915121;29;20087;-64
2022/03/19 02:32:49;;;;;;;18.17;6.55;;;;;;;-0.14;49.94;101819.38;4913780;29;20116;-63
2022/03/19 02:35:18;;;;;;;12.50;5.53;;;;;;;-0.19;49.49;101824.59;4914974;29;20052;-63
2022/03/19 02:37:47;;;;;;;14.27;5.50;;;;;;;-0.25;49.45;101815.34;4913792;29;20060;-63
2022/03/19 02:40:17;;;;;;;10.77;5.88;;;;;;;-0.27;49.64;101820.16;4914621;29;20056;-63
2022/03/19 02:42:53;;;;;;;15.68;6.38;;;;;;;-0.32;49.93;101819.13;4896569;29;20404;-61
2022/03/19 02:45:21;;;;;;;19.63;7.25;;;;;;;-0.38;49.84;101825.41;4915218;29;20052;-63
2022/03/19 02:47:58;;;;;;;23.95;6.40;;;;;;;-0.38;49.87;101814.47;4898058;29;20059;-63
2022/03/19 02:50:33;;;;;;;15.98;6.45;;;;;;;-0.41;50.15;101815.72;4915307;29;20040;-64
2022/03/19 02:53:07;;;;;;;18.27;6.55;;;;;;;-0.38;49.84;101817.22;4934733;29;20090;-64
2022/03/19 02:55:37;;;;;;;18.35;5.75;;;;;;;-0.43;50.06;101815.09;4917153;29;20051;-65
2022/03/19 02:58:05;;;;;;;13.00;5.70;;;;;;;-0.47;49.84;101818.44;4929314;29;20055;-65
2022/03/19 03:00:34;;;;;;;14.40;5.00;;;;;;;-0.53;50.28;101827.47;4934134;29;20047;-65
2022/03/19 03:03:03;;;;;;;18.38;5.65;;;;;;;-0.57;50.36;101817.97;4934280;29;20055;-65
2022/03/19 03:05:30;;;;;;;13.10;5.85;;;;;;;-0.61;50.32;101816.69;4934220;29;20056;-64
2022/03/19 03:07:57;;;;;;;14.85;5.93;;;;;;;-0.62;50.66;101820.50;4921177;29;20099;-63
2022/03/19 03:10:24;;;;;;;15.52;6.07;;;;;;;-0.63;50.64;101818.78;4938175;29;20082;-63
2022/03/19 03:12:51;;;;;;;22.25;6.95;;;;;;;-0.64;50.54;101817.13;4938279;29;20071;-63
2022/03/19 03:15:18;;;;;;;17.33;6.85;;;;;;;-0.65;50.51;101812.69;4937959;29;20119;-62
2022/03/19 03:17:45;;;;;;;17.17;5.53;;;;;;;-0.69;50.64;101808.66;4920615;29;20056;-62
2022/03/19 03:20:13;;;;;;;21.35;6.30;;;;;;;-0.70;50.78;101807.84;4938033;29;20140;-62
2022/03/19 03:22:42;;;;;;;16.33;6.40;;;;;;;-0.68;50.67;101810.38;4937649;29;20059;-62
2022/03/19 03:25:10;;;;;;;15.05;6.03;;;;;;;-0.69;50.64;101816.88;4937936;29;20610;-64
2022/03/19 03:27:38;;;;;;;14.80;6.00;;;;;;;-0.73;50.93;101804.69;4937914;29;20499;-62
2022/03/19 03:30:06;;;;;;;16.55;6.38;;;;;;;-0.68;50.78;101813.94;4905063;29;20074;-62
2022/03/19 03:32:33;;;;;;;18.30;6.25;;;;;;;-0.69;50.78;101814.13;4937470;29;20059;-63
2022/03/19 03:35:00;;;;;;;20.63;6.07;;;;;;;-0.63;50.68;101822.38;4937784;29;20451;-63
2022/03/19 03:37:27;;;;;;;17.92;5.28;;;;;;;-0.58;50.61;101824.50;4937517;29;20055;-63
2022/03/19 03:39:54;;;;;;;15.10;5.30;;;;;;;-0.56;50.61;101822.41;4937888;29;20051;-63
2022/03/19 03:42:21;;;;;;;16.05;5.32;;;;;;;-0.59;50.48;101834.56;4936935;29;20051;-63
2022/03/19 03:44:48;;;;;;;10.68;5.15;;;;;;;-0.62;50.76;101823.22;4937716;29;20139;-63
2022/03/19 03:47:15;;;;;;;11.07;6.32;;;;;;;-0.62;50.98;101824.03;4937032;29;20480;-63
2022/03/19 03:49:42;;;;;;;12.10;5.93;;;;;;;-0.57;50.70;101831.63;4937590;29;20056;-64
2022/03/19 03:52:09;;;;;;;14.57;5.97;;;;;;;-0.51;50.32;101839.88;4937160;29;20102;-65
2022/03/19 03:54:36;;;;;;;15.27;6.00;;;;;;;-0.44;50.68;101839.91;4934153;29;20047;-64
2022/03/19 03:57:03;;;;;;;13.90;5.97;;;;;;;-0.42;50.38;101841.38;4937437;29;20138;-64
2022/03/19 03:59:30;;;;;;;12.40;6.05;;;;;;;-0.36;50.32;101845.16;4936851;29;20418;-65
2022/03/19 04:01:58;;;;;;;17.60;6.43;;;;;;;-0.30;50.01;101844.34;4937741;29;20503;-64
2022/03/19 04:04:26;;;;;;;15.80;6.22;;;;;;;-0.25;50.13;101841.84;4937404;29;20047;-65
2022/03/19 04:06:53;;;;;;;15.55;5.82;;;;;;;-0.21;49.85;101830.28;4937016;29;20469;-64
2022/03/19 04:09:21;;;;;;;12.55;5.03;;;;;;;-0.19;49.67;101833.66;4937050;29;20463;-64
2022/03/19 04:11:48;;;;;;;13.20;6.43;;;;;;;-0.19;49.57;101841.00;4937006;29;20090;-64
2022/03/19 04:14:15;;;;;;;20.20;5.75;;;;;;;-0.20;49.77;101834.69;4936644;29;20147;-64
2022/03/19 04:16:42;;;;;;;28.40;5.78;;;;;;;-0.21;49.78;101843.09;4936883;29;20052;-65
2022/03/19 04:19:09;;;;;;;13.25;5.85;;;;;;;-0.20;49.86;101850.28;4935380;29;20507;-65
2022/03/19 04:21:42;;;;;;;15.52;5.43;;;;;;;-0.24;49.85;101849.84;4936841;29;20051;-65
2022/03/19 04:24:09;;;;;;;20.42;6.22;;;;;;;-0.22;49.61;101846.91;4937020;29;20143;-63
2022/03/19 04:26:36;;;;;;;24.85;5.90;;;;;;;-0.20;49.88;101844.81;4937737;29;20052;-65
2022/03/19 04:29:03;;;;;;;17.08;5.57;;;;;;;-0.15;49.84;101847.75;4936536;29;20142;-65
2022/03/19 04:31:30;;;;;;;21.05;6.53;;;;;;;-0.08;49.88;101851.34;4936668;29;20066;-65
2022/03/19 04:33:57;;;;;;;17.58;6.53;;;;;;;0.02;49.61;101850.97;4937047;29;20495;-65
2022/03/19 04:36:30;;;;;;;14.40;6.40;;;;;;;0.07;49.47;101842.97;4936485;29;20102;-65
2022/03/19 04:39:05;;;;;;;24.95;7.00;;;;;;;0.24;49.59;101853.31;4936548;29;20075;-65
2022/03/19 04:41:33;;;;;;;16.30;6.00;;;;;;;0.36;49.17;101859.00;4936639;29;20052;-65
2022/03/19 04:44:00;;;;;;;15.63;6.28;;;;;;;0.36;49.52;101848.91;4936388;29;20422;-65
2022/03/19 04:46:28;;;;;;;15.32;6.32;;;;;;;0.38;49.58;101860.47;4919024;29;20105;-65
2022/03/19 04:48:56;;;;;;;27.35;8.43;;;;;;;0.50;49.44;101868.91;4936428;29;20086;-64
2022/03/19 04:51:32;;;;;;;17.20;6.75;;;;;;;0.63;49.31;101869.75;4935932;29;20063;-65
2022/03/19 04:54:00;;;;;;;15.40;6.10;;;;;;;0.72;49.08;101865.72;4936696;29;20559;-65
2022/03/19 04:56:28;;;;;;;21.92;6.45;;;;;;;0.85;49.02;101867.59;4935883;29;20142;-66
2022/03/19 04:58:58;;;;;;;19.45;5.70;;;;;;;1.00;48.38;101876.41;4936652;29;20103;-65
2022/03/19 05:01:30;;;;;;;22.17;6.57;;;;;;;1.11;48.73;101871.16;4935666;29;20131;-64
2022/03/19 05:03:58;;;;;;;18.15;6.88;;;;;;;1.15;48.28;101864.16;4918985;29;20057;-64
2022/03/19 05:06:25;;;;;;;16.77;6.65;;;;;;;1.26;48.14;101877.22;4918503;29;20143;-65
2022/03/19 05:11:12;;;;;;;21.73;6.38;;;;;;;1.46;47.92;101872.53;4936153;29;20134;-66
2022/03/19 05:11:40;;;;;;;17.65;6.13;;;;;;;1.64;47.65;101872.66;4918648;29;20047;-63
2022/03/19 05:14:08;;;;;;;16.45;6.30;;;;;;;1.74;47.18;101877.66;4935827;29;20535;-63
2022/03/19 05:16:35;;;;;;;15.52;5.40;;;;;;;1.87;46.72;101880.38;4903284;29;20051;-63
2022/03/19 05:19:02;;;;;;;12.73;5.60;;;;;;;1.99;46.88;101880.50;4936032;29;20054;-63
2022/03/19 05:21:29;;;;;;;19.85;6.28;;;;;;;2.46;45.21;101883.53;4935348;29;20067;-64
2022/03/19 05:23:56;;;;;;;12.93;5.45;;;;;;;3.34;43.66;101885.06;4918550;29;20083;-64
2022/03/19 05:26:23;;;;;;;20.83;5.80;;;;;;;3.97;41.84;101886.41;4918530;29;20062;-64
2022/03/19 05:28:50;;;;;;;9.65;4.95;;;;;;;4.82;39.26;101888.69;4935852;29;20090;-65
2022/03/19 05:31:32;;;;;;;17.80;5.82;;;;;;;4.93;39.32;101887.88;4935232;29;20135;-64
2022/03/19 05:36:45;;;;;;;15.80;6.03;;;;;;;5.59;38.77;101892.97;4931883;29;20055;-63
2022/03/19 05:39:12;;;;;;;27.88;5.75;;;;;;;6.86;36.45;101878.63;4935220;29;20503;-63
2022/03/19 05:41:39;;;;;;;14.55;5.53;;;;;;;8.35;34.35;101881.00;4935382;29;20051;-64
2022/03/19 05:44:06;;;;;;;15.45;6.18;;;;;;;8.09;34.21;101879.00;4935908;29;20079;-64
2022/03/19 05:46:34;;;;;;;12.05;5.28;;;;;;;6.90;36.09;101875.09;4934859;29;20056;-64
2022/03/19 05:49:01;;;;;;;12.57;5.35;;;;;;;6.31;37.23;101883.16;4933907;29;20146;-64
2022/03/19 05:51:28;;;;;;;16.75;5.55;;;;;;;7.23;35.82;101880.59;4931117;29;20582;-64
2022/03/19 05:53:55;;;;;;;19.48;5.68;;;;;;;9.04;32.62;101885.50;4935413;29;20142;-64
2022/03/19 05:56:22;;;;;;;17.20;6.10;;;;;;;10.11;31.66;101880.31;4935055;29;20091;-64
2022/03/19 05:58:50;;;;;;;16.27;6.05;;;;;;;9.28;31.23;101882.09;4935346;29;20063;-63
2022/03/19 06:01:25;;;;;;;10.77;4.97;;;;;;;8.03;33.33;101880.03;4934909;29;20107;-64
2022/03/19 06:03:57;;;;;;;13.45;6.00;;;;;;;7.53;34.33;101882.97;4918117;29;20507;-64
2022/03/19 06:06:25;;;;;;;14.73;6.22;;;;;;;7.64;34.21;101884.78;4934488;29;20051;-63
2022/03/19 06:08:52;;;;;;;10.02;5.18;;;;;;;7.58;34.14;101888.56;4934808;29;20055;-64
2022/03/19 06:11:20;;;;;;;14.55;5.50;;;;;;;8.20;32.86;101883.56;4934694;29;20123;-63
2022/03/19 06:13:47;;;;;;;13.60;5.47;;;;;;;9.24;30.91;101883.72;4935176;29;20051;-63
2022/03/19 06:16:15;;;;;;;12.20;5.07;;;;;;;9.53;31.03;101886.13;4934627;29;20055;-64
2022/03/19 06:18:46;;;;;;;15.27;5.32;;;;;;;12.68;27.35;101872.06;4935175;29;20139;-65
2022/03/19 06:21:13;;;;;;;10.52;5.63;;;;;;;15.78;24.06;101869.03;4934353;29;20805;-66
2022/03/19 06:23:40;;;;;;;12.10;5.43;;;;;;;17.67;21.74;101869.59;4934879;29;20562;-65
2022/03/19 06:26:07;;;;;;;10.43;5.00;;;;;;;18.81;20.66;101867.31;4934181;29;20518;-65
2022/03/19 06:28:34;;;;;;;10.25;5.60;;;;;;;18.62;20.89;101875.22;4934972;29;20119;-65
2022/03/19 06:31:01;;;;;;;12.98;5.10;;;;;;;18.83;20.65;101876.25;4934434;29;20134;-65
2022/03/19 06:33:28;;;;;;;10.70;5.50;;;;;;;19.40;19.94;101874.91;4934570;29;20558;-67
2022/03/19 06:38:41;;;;;;;14.80;5.65;;;;;;;20.30;18.60;101879.22;4934852;29;20499;-67
2022/03/19 06:41:10;;;;;;;12.80;4.88;;;;;;;20.19;18.17;101872.28;4934804;29;20475;-66
2022/03/19 06:43:38;;;;;;;12.20;4.80;;;;;;;20.28;18.03;101875.09;4936013;29;20123;-65
2022/03/19 06:46:05;;;;;;;17.92;5.75;;;;;;;21.32;17.18;101869.13;4938243;29;20067;-65
2022/03/19 06:48:32;;;;;;;7.80;4.68;;;;;;;20.70;16.64;101863.50;4938887;29;20514;-66
2022/03/19 06:50:59;;;;;;;8.90;4.30;;;;;;;20.73;16.79;101861.97;4921266;29;20067;-65
2022/03/19 06:53:26;;;;;;;9.20;5.30;;;;;;;18.57;18.30;101864.13;4938182;29;20051;-65
2022/03/19 06:55:53;;;;;;;15.43;4.70;;;;;;;16.87;19.60;101877.34;4938454;29;20134;-65
2022/03/19 06:58:21;;;;;;;15.73;4.95;;;;;;;15.87;20.04;101872.78;4938079;29;20142;-66
2022/03/19 07:00:49;;;;;;;18.75;5.20;;;;;;;14.23;21.79;101871.59;4938672;29;20440;-66
2022/03/19 07:03:16;;;;;;;17.33;4.85;;;;;;;13.56;21.99;101880.28;4938331;29;20059;-65
2022/03/19 07:05:43;;;;;;;9.35;4.68;;;;;;;14.17;21.76;101872.81;4938320;29;20146;-65
2022/03/19 07:08:10;;;;;;;16.95;5.00;;;;;;;14.90;21.07;101876.81;4921023;29;20056;-65
2022/03/19 07:10:37;;;;;;;16.55;4.32;;;;;;;16.20;19.67;101874.31;4937969;29;20051;-66
2022/03/19 07:13:04;;;;;;;8.90;4.38;;;;;;;17.63;18.47;101865.78;4937865;29;20054;-66
2022/03/19 07:15:31;;;;;;;10.45;5.13;;;;;;;18.50;17.83;101869.41;4938625;29;20059;-66
2022/03/19 07:18:00;;;;;;;10.50;4.30;;;;;;;18.48;17.75;101877.38;4937785;29;20138;-66
2022/03/19 07:20:30;;;;;;;15.67;5.47;;;;;;;19.14;17.42;101876.91;4938081;29;20099;-66
2022/03/19 07:23:00;;;;;;;23.77;5.30;;;;;;;20.33;16.57;101874.88;4937784;29;20083;-66
2022/03/19 07:25:38;;;;;;;14.65;5.00;;;;;;;20.74;15.78;101877.75;4937860;29;20287;-67
2022/03/19 07:28:09;;;;;;;11.90;4.75;;;;;;;19.39;16.96;101878.06;4937382;29;20142;-65
2022/03/19 07:30:37;;;;;;;20.52;5.70;;;;;;;19.49;16.95;101881.38;4921067;29;20099;-66
2022/03/19 07:33:05;;;;;;;14.15;5.78;;;;;;;19.60;16.63;101882.66;4937447;29;20486;-65
2022/03/19 07:35:32;;;;;;;15.55;6.30;;;;;;;21.02;15.90;101893.06;4937662;29;20079;-65
2022/03/19 07:38:01;;;;;;;29.52;11.63;;;;;;;22.69;14.49;101888.91;4936992;29;20050;-65
2022/03/19 07:43:14;;;;;;;15.82;5.70;;;;;;;20.45;15.85;101880.63;4937415;29;20131;-65
2022/03/19 07:45:47;;;;;;;10.50;5.30;;;;;;;18.36;17.25;101884.78;4937225;29;20139;-66
2022/03/19 07:48:15;;;;;;;20.90;5.55;;;;;;;18.50;17.26;101886.31;4937118;29;20047;-65
2022/03/19 07:50:53;;;;;;;10.45;5.10;;;;;;;17.86;17.58;101873.03;4936817;29;20150;-66
2022/03/19 07:53:20;;;;;;;18.80;6.90;;;;;;;16.84;18.65;101877.97;4919598;29;20146;-66
2022/03/19 07:55:47;;;;;;;20.80;6.15;;;;;;;17.39;18.49;101882.19;4920524;29;20420;-66
2022/03/19 07:58:17;;;;;;;13.60;5.32;;;;;;;18.52;17.50;101881.19;4937056;29;20055;-66
2022/03/19 08:00:45;;;;;;;23.45;8.23;;;;;;;17.82;17.76;101888.88;4936979;29;20048;-67
2022/03/19 08:03:12;;;;;;;19.77;5.85;;;;;;;17.92;17.85;101888.63;4937231;29;20059;-65
2022/03/19 08:05:43;;;;;;;22.55;6.25;;;;;;;19.13;16.73;101878.03;4937339;29;20056;-66
2022/03/19 08:08:12;;;;;;;15.75;6.13;;;;;;;19.93;16.25;101883.69;4936586;29;20434;-65
2022/03/19 08:10:39;;;;;;;;;;;;;;;20.46;16.06;101888.75;4937525;29;20177;-65
2022/03/19 08:13:08;;;;;;;22.33;6.25;;;;;;;20.70;15.77;101882.47;4936793;29;19931;-65
2022/03/19 08:15:39;;;;;;;12.82;6.18;;;;;;;20.32;16.21;101867.56;4937275;29;20475;-65
2022/03/19 08:18:06;;;;;;;17.38;6.65;;;;;;;20.31;16.06;101871.56;4936685;29;20047;-63
2022/03/19 08:20:33;;;;;;;16.02;6.03;;;;;;;21.36;15.23;101878.56;4936673;29;20066;-65
2022/03/19 08:23:00;;;;;;;23.50;6.50;;;;;;;22.20;14.68;101884.41;4936493;29;20079;-65
2022/03/19 08:25:27;;;;;;;21.40;6.85;;;;;;;23.30;13.82;101870.50;4937099;29;20051;-65
2022/03/19 08:27:54;;;;;;;18.27;5.60;;;;;;;24.32;13.05;101873.28;4936568;29;20571;-63
2022/03/19 08:30:21;;;;;;;22.52;5.90;;;;;;;24.68;12.99;101872.13;4920154;29;20142;-65
2022/03/19 08:32:48;;;;;;;14.63;6.78;;;;;;;25.24;12.72;101872.53;4937151;29;20115;-63
2022/03/19 08:35:15;;;;;;;16.23;6.85;;;;;;;26.67;12.07;101880.94;4936070;29;20059;-66
2022/03/19 08:37:47;;;;;;;17.08;6.38;;;;;;;28.85;10.90;101871.88;4936685;29;20043;-65
2022/03/19 08:40:17;;;;;;;11.20;5.88;;;;;;;30.40;9.74;101866.63;4935977;29;20163;-65
2022/03/19 08:42:52;;;;;;;13.18;6.72;;;;;;;31.00;9.66;101868.16;4936590;29;20072;-66
2022/03/19 08:45:21;;;;;;;20.75;6.78;;;;;;;32.45;8.89;101860.31;4936555;29;20055;-65
2022/03/19 08:47:49;;;;;;;13.25;6.55;;;;;;;33.23;8.01;101868.94;4936380;29;20059;-65
2022/03/19 08:50:17;;;;;;;12.55;5.93;;;;;;;34.34;7.66;101859.06;4935850;29;20590;-65
2022/03/19 08:52:44;;;;;;;12.85;5.72;;;;;;;35.14;7.32;101871.19;4936057;29;20064;-64
2022/03/19 08:55:11;;;;;;;28.75;10.65;;;;;;;35.40;7.41;101870.22;4936114;29;20086;-63
2022/03/19 08:57:38;;;;;;;16.38;5.28;;;;;;;35.27;7.50;101877.09;4936386;29;20086;-65
2022/03/19 09:00:07;;;;;;;11.55;5.40;;;;;;;35.78;6.48;101873.50;4935893;29;20055;-65
2022/03/19 09:02:40;;;;;;;14.65;5.95;;;;;;;35.98;6.55;101878.00;4936609;29;20051;-65
2022/03/19 09:05:08;;;;;;;11.65;5.53;;;;;;;36.26;6.50;101877.28;4935390;29;20085;-68
2022/03/19 09:07:35;;;;;;;14.23;5.72;;;;;;;36.10;6.69;101874.41;4935832;29;20059;-66
2022/03/19 09:10:03;;;;;;;18.27;7.32;;;;;;;36.67;6.21;101871.69;4935584;29;20499;-65
2022/03/19 09:12:37;;;;;;;14.48;5.60;;;;;;;36.89;5.96;101862.41;4935984;29;20047;-65
2022/03/19 09:15:06;;;;;;;11.65;5.50;;;;;;;36.58;6.27;101871.50;4935849;29;20519;-64
2022/03/19 09:17:33;;;;;;;18.05;5.63;;;;;;;36.54;5.83;101873.69;4935988;29;20055;-64
2022/03/19 09:20:00;;;;;;;12.15;5.20;;;;;;;36.53;6.11;101877.84;4935722;29;20087;-66
2022/03/19 09:22:30;;;;;;;12.45;5.78;;;;;;;37.19;5.87;101868.56;4935515;29;20048;-65
2022/03/19 09:24:57;;;;;;;11.57;4.45;;;;;;;37.12;5.71;101871.66;4935646;29;20048;-64
2022/03/19 09:27:24;;;;;;;10.25;3.88;;;;;;;37.21;5.77;101873.94;4935708;29;20146;-65
2022/03/19 09:29:51;;;;;;;6.80;3.90;;;;;;;37.09;5.67;101877.59;4935109;29;20051;-65
2022/03/19 09:32:19;;;;;;;11.25;4.20;;;;;;;37.41;5.37;101878.28;4935454;29;20091;-64
2022/03/19 09:34:49;;;;;;;6.43;3.95;;;;;;;37.08;5.62;101873.03;4935158;29;20079;-65
2022/03/19 09:37:16;;;;;;;12.85;3.60;;;;;;;37.11;5.46;101877.94;4918287;29;20056;-64
2022/03/19 09:39:43;;;;;;;9.32;3.53;;;;;;;37.31;5.55;101881.50;4935263;29;20062;-64
2022/03/19 09:42:12;;;;;;;6.50;3.67;;;;;;;37.68;5.31;101887.44;4935417;29;20618;-64
2022/03/19 09:44:43;;;;;;;9.02;3.70;;;;;;;36.52;5.46;101882.03;4935154;29;20055;-64
2022/03/19 09:47:12;;;;;;;9.57;3.67;;;;;;;33.15;6.42;101873.97;4934493;29;20523;-64
2022/03/19 09:49:40;;;;;;;10.05;4.15;;;;;;;27.82;9.08;101882.81;4935355;29;20051;-66
2022/03/19 09:52:10;;;;;;;8.35;3.92;;;;;;;24.93;10.70;101879.22;4934556;29;20615;-66
2022/03/19 09:54:37;;;;;;;7.15;3.42;;;;;;;22.90;12.05;101874.53;4935383;29;20495;-66
2022/03/19 09:57:05;;;;;;;9.45;3.10;;;;;;;20.82;13.18;101883.38;4934710;29;20164;-67
2022/03/19 09:59:37;;;;;;;15.38;3.75;;;;;;;19.50;14.16;101876.53;4935632;29;20134;-66
2022/03/19 10:02:08;;;;;;;8.35;3.40;;;;;;;17.85;15.40;101896.69;4934673;29;20046;-65
2022/03/19 10:04:39;;;;;;;6.03;3.67;;;;;;;16.89;16.58;101889.06;4935531;29;20479;-66
2022/03/19 10:09:52;;;;;;;8.02;3.55;;;;;;;15.20;17.84;101892.25;4934802;29;20107;-65
2022/03/19 10:12:22;;;;;;;6.03;3.42;;;;;;;14.57;18.21;101892.69;4935302;29;20051;-69
2022/03/19 10:14:51;;;;;;;7.63;3.40;;;;;;;14.15;18.71;101887.09;4934566;29;20059;-66
2022/03/19 10:17:29;;;;;;;6.38;2.95;;;;;;;13.65;19.40;101903.66;4934256;29;20758;-68
2022/03/19 10:20:04;;;;;;;10.00;3.08;;;;;;;13.39;19.89;101902.25;4934565;29;20468;-67
2022/03/19 10:22:32;;;;;;;6.15;3.30;;;;;;;13.13;20.40;101903.59;4932918;29;20199;-67
2022/03/19 10:25:06;;;;;;;14.43;4.10;;;;;;;12.96;20.58;101905.97;4917083;29;20075;-66
2022/03/19 10:27:38;;;;;;;11.00;3.58;;;;;;;12.56;21.14;101902.28;4935553;29;20142;-66
2022/03/19 10:30:11;;;;;;;6.55;3.50;;;;;;;12.13;21.61;101903.09;4934482;29;20480;-66
2022/03/19 10:32:39;;;;;;;8.13;3.63;;;;;;;11.83;21.70;101902.38;4934625;29;20051;-65
2022/03/19 10:35:29;;;;;;;10.43;3.75;;;;;;;11.65;22.56;101906.63;4934373;29;20139;-66
2022/03/19 10:37:58;;;;;;;14.10;3.28;;;;;;;11.55;22.52;101906.63;4925826;29;20048;-67
2022/03/19 10:40:37;;;;;;;7.72;3.72;;;;;;;11.22;23.28;101907.19;4934330;29;20487;-66
2022/03/19 10:43:06;;;;;;;8.80;3.42;;;;;;;11.09;23.77;101902.19;4934733;29;20135;-67
2022/03/19 10:45:54;;;;;;;17.08;3.20;;;;;;;11.06;23.43;101902.75;4934270;29;20055;-66
2022/03/19 10:48:25;;;;;;;7.30;3.75;;;;;;;11.15;23.37;101909.44;4934228;29;20438;-66
2022/03/19 10:50:53;;;;;;;8.20;4.03;;;;;;;11.13;24.09;101892.16;4931523;29;20059;-66
2022/03/19 10:53:22;;;;;;;22.50;4.05;;;;;;;11.06;24.23;101894.38;4934179;29;20048;-68
2022/03/19 10:55:49;;;;;;;10.15;3.90;;;;;;;10.91;24.17;101894.38;4931417;29;20047;-66
2022/03/19 10:58:16;;;;;;;13.20;3.85;;;;;;;10.83;24.66;101894.94;4917225;29;20047;-66
2022/03/19 11:01:05;;;;;;;4.15;2.85;;;;;;;10.86;24.16;101895.22;4932909;29;20534;-66
2022/03/19 11:03:35;;;;;;;8.93;3.25;;;;;;;10.73;25.08;101898.56;4934383;29;20059;-66
2022/03/19 11:06:05;;;;;;;9.75;4.00;;;;;;;10.65;24.23;101895.47;4934382;29;20058;-66
2022/03/19 11:08:41;;;;;;;7.68;3.53;;;;;;;10.63;24.66;101898.53;4934440;29;20124;-66
2022/03/19 11:11:16;;;;;;;6.65;3.10;;;;;;;10.38;25.31;101894.84;4934259;29;20083;-65
2022/03/19 11:13:49;;;;;;;7.47;3.47;;;;;;;10.31;24.97;101888.72;4933954;29;20082;-66
2022/03/19 11:16:18;;;;;;;7.78;3.47;;;;;;;10.22;25.21;101884.81;4934098;29;20475;-66
2022/03/19 11:18:46;;;;;;;13.98;3.55;;;;;;;10.17;25.40;101882.00;4933947;29;20048;-66
2022/03/19 11:21:17;;;;;;;6.70;3.60;;;;;;;10.21;25.30;101883.97;4934362;29;20142;-66
2022/03/19 11:23:56;;;;;;;13.60;3.45;;;;;;;10.14;25.21;101891.75;4933760;29;20562;-66
2022/03/19 11:26:28;;;;;;;8.05;3.00;;;;;;;10.07;25.43;101877.22;4934557;29;20147;-67
2022/03/19 11:28:55;;;;;;;9.77;4.55;;;;;;;10.00;24.94;101886.91;4936914;29;20059;-66
2022/03/19 11:31:32;;;;;;;13.93;4.65;;;;;;;10.07;25.44;101873.63;4937638;29;20047;-66
2022/03/19 11:34:15;;;;;;;6.50;3.30;;;;;;;10.10;25.43;101887.00;4937818;29;20055;-67
2022/03/19 11:36:56;;;;;;;10.75;3.33;;;;;;;10.05;25.35;101881.38;4936885;29;20048;-66
2022/03/19 11:39:24;;;;;;;5.78;3.53;;;;;;;10.07;25.43;101881.97;4918513;29;20098;-66
2022/03/19 11:41:51;;;;;;;8.88;3.83;;;;;;;10.10;25.64;101881.44;4937106;29;20467;-66
2022/03/19 11:44:23;;;;;;;7.75;4.05;;;;;;;10.07;25.71;101876.41;4937822;29;20507;-66